sensor_id;sensor_type;location;lat;lon;timestamp;temperature;humidity
19483;DHT22;9882;51.166;6.992;2023-05-09T00:00:09;17.50;99.90
19483;DHT22;9882;51.166;6.992;2023-05-09T00:02:41;17.50;99.90
19483;DHT22;9882;51.166;6.992;2023-05-09T00:05:12;17.50;99.90
19483;DHT22;9882;51.166;6.992;2023-05-09T00:07:41;17.40;99.90
19483;DHT22;9882;51.166;6.992;2023-05-09T00:10:11;17.30;99.90
19483;DHT22;9882;51.166;6.992;2023-05-09T00:12:40;17.20;99.90
19483;DHT22;9882;51.166;6.992;2023-05-09T00:15:12;17.20;99.90
19483;DHT22;9882;51.166;6.992;2023-05-09T00:17:42;17.30;99.90
19483;DHT22;9882;51.166;6.992;2023-05-09T00:20:12;17.30;99.90
19483;DHT22;9882;51.166;6.992;2023-05-09T00:22:42;17.40;99.90
19483;DHT22;9882;51.166;6.992;2023-05-09T00:25:11;17.30;99.90
19483;DHT22;9882;51.166;6.992;2023-05-09T00:27:40;17.30;99.90
19483;DHT22;9882;51.166;6.992;2023-05-09T00:30:11;17.20;99.90
19483;DHT22;9882;51.166;6.992;2023-05-09T00:32:40;17.20;99.90
19483;DHT22;9882;51.166;6.992;2023-05-09T00:35:09;17.10;99.90
19483;DHT22;9882;51.166;6.992;2023-05-09T00:37:38;17.20;99.90
19483;DHT22;9882;51.166;6.992;2023-05-09T00:40:08;17.20;99.90
19483;DHT22;9882;51.166;6.992;2023-05-09T00:42:37;17.20;99.90
19483;DHT22;9882;51.166;6.992;2023-05-09T00:45:07;17.20;99.90
19483;DHT22;9882;51.166;6.992;2023-05-09T00:47:38;17.20;99.90
19483;DHT22;9882;51.166;6.992;2023-05-09T00:50:08;17.10;99.90
19483;DHT22;9882;51.166;6.992;2023-05-09T00:52:37;17.00;99.90
19483;DHT22;9882;51.166;6.992;2023-05-09T00:55:07;17.10;99.90
19483;DHT22;9882;51.166;6.992;2023-05-09T00:57:36;17.10;99.90
19483;DHT22;9882;51.166;6.992;2023-05-09T01:00:07;17.10;99.90
19483;DHT22;9882;51.166;6.992;2023-05-09T01:02:42;17.20;99.90
19483;DHT22;9882;51.166;6.992;2023-05-09T01:05:12;17.20;99.90
19483;DHT22;9882;51.166;6.992;2023-05-09T01:07:47;17.20;99.90
19483;DHT22;9882;51.166;6.992;2023-05-09T01:10:24;17.20;99.90
19483;DHT22;9882;51.166;6.992;2023-05-09T01:13:02;17.20;99.90
19483;DHT22;9882;51.166;6.992;2023-05-09T01:15:36;17.30;99.90
19483;DHT22;9882;51.166;6.992;2023-05-09T01:18:13;17.20;99.90
19483;DHT22;9882;51.166;6.992;2023-05-09T01:20:48;17.20;99.90
19483;DHT22;9882;51.166;6.992;2023-05-09T01:23:46;17.20;99.90
19483;DHT22;9882;51.166;6.992;2023-05-09T01:26:25;17.30;99.90
19483;DHT22;9882;51.166;6.992;2023-05-09T01:29:26;17.20;99.90
19483;DHT22;9882;51.166;6.992;2023-05-09T01:32:02;17.20;99.90
19483;DHT22;9882;51.166;6.992;2023-05-09T01:34:33;17.10;99.90
19483;DHT22;9882;51.166;6.992;2023-05-09T01:37:04;17.10;99.90
19483;DHT22;9882;51.166;6.992;2023-05-09T01:39:38;17.10;99.90
19483;DHT22;9882;51.166;6.992;2023-05-09T01:42:10;17.20;99.90
19483;DHT22;9882;51.166;6.992;2023-05-09T01:44:42;17.10;99.90
19483;DHT22;9882;51.166;6.992;2023-05-09T01:47:14;17.10;99.90
19483;DHT22;9882;51.166;6.992;2023-05-09T01:49:45;17.10;99.90
19483;DHT22;9882;51.166;6.992;2023-05-09T01:52:18;17.10;99.90
19483;DHT22;9882;51.166;6.992;2023-05-09T01:54:47;17.10;99.90
19483;DHT22;9882;51.166;6.992;2023-05-09T01:57:19;17.10;99.90
19483;DHT22;9882;51.166;6.992;2023-05-09T01:59:52;17.00;99.90
19483;DHT22;9882;51.166;6.992;2023-05-09T02:02:25;16.90;99.90
19483;DHT22;9882;51.166;6.992;2023-05-09T02:04:55;16.90;99.90
19483;DHT22;9882;51.166;6.992;2023-05-09T02:07:26;16.90;99.90
19483;DHT22;9882;51.166;6.992;2023-05-09T02:10:01;16.90;99.90
19483;DHT22;9882;51.166;6.992;2023-05-09T02:12:31;16.60;99.90
19483;DHT22;9882;51.166;6.992;2023-05-09T02:15:02;16.50;99.90
19483;DHT22;9882;51.166;6.992;2023-05-09T02:17:32;16.40;99.90
19483;DHT22;9882;51.166;6.992;2023-05-09T02:20:01;16.60;99.90
19483;DHT22;9882;51.166;6.992;2023-05-09T02:22:31;16.60;99.90
19483;DHT22;9882;51.166;6.992;2023-05-09T02:25:01;16.60;99.90
19483;DHT22;9882;51.166;6.992;2023-05-09T02:27:33;16.50;99.90
19483;DHT22;9882;51.166;6.992;2023-05-09T02:30:08;16.50;99.90
19483;DHT22;9882;51.166;6.992;2023-05-09T02:32:39;16.50;99.90
19483;DHT22;9882;51.166;6.992;2023-05-09T02:35:12;16.40;99.90
19483;DHT22;9882;51.166;6.992;2023-05-09T02:37:43;16.40;99.90
19483;DHT22;9882;51.166;6.992;2023-05-09T02:40:13;16.40;99.90
19483;DHT22;9882;51.166;6.992;2023-05-09T02:42:42;16.50;99.90
19483;DHT22;9882;51.166;6.992;2023-05-09T02:45:12;16.60;99.90
19483;DHT22;9882;51.166;6.992;2023-05-09T02:47:42;16.70;99.90
19483;DHT22;9882;51.166;6.992;2023-05-09T02:50:11;16.70;99.90
19483;DHT22;9882;51.166;6.992;2023-05-09T02:52:41;16.60;99.90
19483;DHT22;9882;51.166;6.992;2023-05-09T02:55:10;16.70;99.90
19483;DHT22;9882;51.166;6.992;2023-05-09T02:57:41;16.60;99.90
19483;DHT22;9882;51.166;6.992;2023-05-09T03:00:13;16.60;99.90
19483;DHT22;9882;51.166;6.992;2023-05-09T03:02:42;16.50;99.90
19483;DHT22;9882;51.166;6.992;2023-05-09T03:05:15;16.60;99.90
19483;DHT22;9882;51.166;6.992;2023-05-09T03:07:45;16.60;99.90
19483;DHT22;9882;51.166;6.992;2023-05-09T03:10:15;16.60;99.90
19483;DHT22;9882;51.166;6.992;2023-05-09T03:12:44;16.60;99.90
19483;DHT22;9882;51.166;6.992;2023-05-09T03:15:15;16.60;99.90
19483;DHT22;9882;51.166;6.992;2023-05-09T03:17:46;16.60;99.90
19483;DHT22;9882;51.166;6.992;2023-05-09T03:20:16;16.60;99.90
19483;DHT22;9882;51.166;6.992;2023-05-09T03:22:45;16.50;99.90
19483;DHT22;9882;51.166;6.992;2023-05-09T03:25:15;16.50;99.90
19483;DHT22;9882;51.166;6.992;2023-05-09T03:27:44;16.30;99.90
19483;DHT22;9882;51.166;6.992;2023-05-09T03:30:16;16.30;99.90
19483;DHT22;9882;51.166;6.992;2023-05-09T03:32:48;16.30;99.90
19483;DHT22;9882;51.166;6.992;2023-05-09T03:35:17;16.40;99.90
19483;DHT22;9882;51.166;6.992;2023-05-09T03:37:46;16.30;99.90
19483;DHT22;9882;51.166;6.992;2023-05-09T03:40:15;16.20;99.90
19483;DHT22;9882;51.166;6.992;2023-05-09T03:42:55;16.40;99.90
19483;DHT22;9882;51.166;6.992;2023-05-09T03:45:27;16.40;99.90
19483;DHT22;9882;51.166;6.992;2023-05-09T03:47:56;16.40;99.90
19483;DHT22;9882;51.166;6.992;2023-05-09T03:50:25;16.50;99.90
19483;DHT22;9882;51.166;6.992;2023-05-09T03:52:57;16.50;99.90
19483;DHT22;9882;51.166;6.992;2023-05-09T03:55:27;16.50;99.90
19483;DHT22;9882;51.166;6.992;2023-05-09T03:57:56;16.50;99.90
19483;DHT22;9882;51.166;6.992;2023-05-09T04:00:26;16.50;99.90
19483;DHT22;9882;51.166;6.992;2023-05-09T04:03:05;16.50;99.90
19483;DHT22;9882;51.166;6.992;2023-05-09T04:05:39;16.60;99.90
19483;DHT22;9882;51.166;6.992;2023-05-09T04:08:14;16.60;99.90
19483;DHT22;9882;51.166;6.992;2023-05-09T04:10:43;16.50;99.90
19483;DHT22;9882;51.166;6.992;2023-05-09T04:13:13;16.50;99.90
19483;DHT22;9882;51.166;6.992;2023-05-09T04:15:44;16.60;99.90
19483;DHT22;9882;51.166;6.992;2023-05-09T04:18:13;16.60;99.90
19483;DHT22;9882;51.166;6.992;2023-05-09T04:20:42;16.50;99.90
19483;DHT22;9882;51.166;6.992;2023-05-09T04:23:11;16.40;99.90
19483;DHT22;9882;51.166;6.992;2023-05-09T04:25:41;16.40;99.90
19483;DHT22;9882;51.166;6.992;2023-05-09T04:28:10;16.60;99.90
19483;DHT22;9882;51.166;6.992;2023-05-09T04:30:39;16.60;99.90
19483;DHT22;9882;51.166;6.992;2023-05-09T04:33:10;16.60;99.90
19483;DHT22;9882;51.166;6.992;2023-05-09T04:35:41;16.50;99.90
19483;DHT22;9882;51.166;6.992;2023-05-09T04:38:11;16.60;99.90
19483;DHT22;9882;51.166;6.992;2023-05-09T04:40:40;16.50;99.90
19483;DHT22;9882;51.166;6.992;2023-05-09T04:43:09;16.50;99.90
19483;DHT22;9882;51.166;6.992;2023-05-09T04:45:38;16.50;99.90
19483;DHT22;9882;51.166;6.992;2023-05-09T04:48:08;16.40;99.90
19483;DHT22;9882;51.166;6.992;2023-05-09T04:50:39;16.40;99.90
19483;DHT22;9882;51.166;6.992;2023-05-09T04:53:08;16.40;99.90
19483;DHT22;9882;51.166;6.992;2023-05-09T04:55:38;16.40;99.90
19483;DHT22;9882;51.166;6.992;2023-05-09T04:58:08;16.40;99.90
19483;DHT22;9882;51.166;6.992;2023-05-09T05:00:37;16.50;99.90
19483;DHT22;9882;51.166;6.992;2023-05-09T05:03:08;16.40;99.90
19483;DHT22;9882;51.166;6.992;2023-05-09T05:05:39;16.30;99.90
19483;DHT22;9882;51.166;6.992;2023-05-09T05:08:09;16.30;99.90
19483;DHT22;9882;51.166;6.992;2023-05-09T05:10:40;16.20;99.90
19483;DHT22;9882;51.166;6.992;2023-05-09T05:13:12;16.00;99.90
19483;DHT22;9882;51.166;6.992;2023-05-09T05:15:45;16.00;99.90
19483;DHT22;9882;51.166;6.992;2023-05-09T05:18:15;16.00;99.90
19483;DHT22;9882;51.166;6.992;2023-05-09T05:20:45;16.00;99.90
19483;DHT22;9882;51.166;6.992;2023-05-09T05:23:15;16.10;99.90
19483;DHT22;9882;51.166;6.992;2023-05-09T05:25:45;16.20;99.90
19483;DHT22;9882;51.166;6.992;2023-05-09T05:28:15;16.30;99.90
19483;DHT22;9882;51.166;6.992;2023-05-09T05:30:44;16.20;99.90
19483;DHT22;9882;51.166;6.992;2023-05-09T05:33:14;16.20;99.90
19483;DHT22;9882;51.166;6.992;2023-05-09T05:35:45;16.20;99.90
19483;DHT22;9882;51.166;6.992;2023-05-09T05:38:15;16.20;99.90
19483;DHT22;9882;51.166;6.992;2023-05-09T05:40:48;16.30;99.90
19483;DHT22;9882;51.166;6.992;2023-05-09T05:43:17;16.20;99.90
19483;DHT22;9882;51.166;6.992;2023-05-09T05:45:46;16.20;99.90
19483;DHT22;9882;51.166;6.992;2023-05-09T05:48:19;16.20;99.90
19483;DHT22;9882;51.166;6.992;2023-05-09T05:51:22;16.20;99.90
19483;DHT22;9882;51.166;6.992;2023-05-09T05:54:22;16.30;99.90
19483;DHT22;9882;51.166;6.992;2023-05-09T05:57:00;16.30;99.90
19483;DHT22;9882;51.166;6.992;2023-05-09T05:59:55;16.30;99.90
19483;DHT22;9882;51.166;6.992;2023-05-09T06:02:24;16.30;99.90
19483;DHT22;9882;51.166;6.992;2023-05-09T06:04:56;16.40;99.90
19483;DHT22;9882;51.166;6.992;2023-05-09T06:07:26;16.30;99.90
19483;DHT22;9882;51.166;6.992;2023-05-09T06:09:55;16.30;99.90
19483;DHT22;9882;51.166;6.992;2023-05-09T06:12:24;16.40;99.90
19483;DHT22;9882;51.166;6.992;2023-05-09T06:14:54;16.30;99.90
19483;DHT22;9882;51.166;6.992;2023-05-09T06:17:22;16.40;99.90
19483;DHT22;9882;51.166;6.992;2023-05-09T06:19:51;16.30;99.90
19483;DHT22;9882;51.166;6.992;2023-05-09T06:22:19;16.30;99.90
19483;DHT22;9882;51.166;6.992;2023-05-09T06:24:50;16.40;99.90
19483;DHT22;9882;51.166;6.992;2023-05-09T06:27:18;16.50;99.90
19483;DHT22;9882;51.166;6.992;2023-05-09T06:29:47;16.50;99.90
19483;DHT22;9882;51.166;6.992;2023-05-09T06:32:15;16.40;99.90
19483;DHT22;9882;51.166;6.992;2023-05-09T06:34:44;16.50;99.90
19483;DHT22;9882;51.166;6.992;2023-05-09T06:37:13;16.50;99.90
19483;DHT22;9882;51.166;6.992;2023-05-09T06:39:41;16.50;99.90
19483;DHT22;9882;51.166;6.992;2023-05-09T06:42:11;16.70;99.90
19483;DHT22;9882;51.166;6.992;2023-05-09T06:44:40;16.60;99.90
19483;DHT22;9882;51.166;6.992;2023-05-09T06:47:09;16.70;99.90
19483;DHT22;9882;51.166;6.992;2023-05-09T06:49:38;16.70;99.90
19483;DHT22;9882;51.166;6.992;2023-05-09T06:52:07;16.70;99.90
19483;DHT22;9882;51.166;6.992;2023-05-09T06:54:35;16.80;99.90
19483;DHT22;9882;51.166;6.992;2023-05-09T06:57:05;16.80;99.90
19483;DHT22;9882;51.166;6.992;2023-05-09T06:59:34;17.00;99.90
19483;DHT22;9882;51.166;6.992;2023-05-09T07:02:03;16.90;99.90
19483;DHT22;9882;51.166;6.992;2023-05-09T07:04:31;16.90;99.90
19483;DHT22;9882;51.166;6.992;2023-05-09T07:07:00;17.00;99.90
19483;DHT22;9882;51.166;6.992;2023-05-09T07:09:28;17.00;99.90
19483;DHT22;9882;51.166;6.992;2023-05-09T07:11:58;17.10;99.90
19483;DHT22;9882;51.166;6.992;2023-05-09T07:14:27;17.10;99.90
19483;DHT22;9882;51.166;6.992;2023-05-09T07:16:57;17.20;99.90
19483;DHT22;9882;51.166;6.992;2023-05-09T07:19:37;17.20;99.90
19483;DHT22;9882;51.166;6.992;2023-05-09T07:22:06;17.20;99.90
19483;DHT22;9882;51.166;6.992;2023-05-09T07:24:45;17.30;99.90
19483;DHT22;9882;51.166;6.992;2023-05-09T07:27:32;17.40;99.90
19483;DHT22;9882;51.166;6.992;2023-05-09T07:30:06;17.40;99.90
19483;DHT22;9882;51.166;6.992;2023-05-09T07:32:42;17.40;99.90
19483;DHT22;9882;51.166;6.992;2023-05-09T07:35:10;17.40;99.90
19483;DHT22;9882;51.166;6.992;2023-05-09T07:37:39;17.40;99.90
19483;DHT22;9882;51.166;6.992;2023-05-09T07:40:09;17.50;99.90
19483;DHT22;9882;51.166;6.992;2023-05-09T07:42:37;17.50;99.90
19483;DHT22;9882;51.166;6.992;2023-05-09T07:45:07;17.60;99.90
19483;DHT22;9882;51.166;6.992;2023-05-09T07:47:38;17.60;99.90
19483;DHT22;9882;51.166;6.992;2023-05-09T07:50:10;17.70;99.90
19483;DHT22;9882;51.166;6.992;2023-05-09T07:52:39;17.60;99.90
19483;DHT22;9882;51.166;6.992;2023-05-09T07:55:08;17.70;99.90
19483;DHT22;9882;51.166;6.992;2023-05-09T07:57:45;17.80;99.90
19483;DHT22;9882;51.166;6.992;2023-05-09T08:00:17;17.90;99.90
19483;DHT22;9882;51.166;6.992;2023-05-09T08:02:53;17.80;99.90
19483;DHT22;9882;51.166;6.992;2023-05-09T08:05:36;17.90;99.90
19483;DHT22;9882;51.166;6.992;2023-05-09T08:08:06;17.80;99.90
19483;DHT22;9882;51.166;6.992;2023-05-09T08:10:35;18.00;99.90
19483;DHT22;9882;51.166;6.992;2023-05-09T08:13:03;18.00;99.90
19483;DHT22;9882;51.166;6.992;2023-05-09T08:15:32;18.20;99.90
19483;DHT22;9882;51.166;6.992;2023-05-09T08:18:05;18.00;99.90
19483;DHT22;9882;51.166;6.992;2023-05-09T08:20:49;18.00;99.90
19483;DHT22;9882;51.166;6.992;2023-05-09T08:23:31;18.10;99.90
19483;DHT22;9882;51.166;6.992;2023-05-09T08:26:14;18.10;99.90
19483;DHT22;9882;51.166;6.992;2023-05-09T08:28:42;18.10;99.90
19483;DHT22;9882;51.166;6.992;2023-05-09T08:31:14;18.00;99.90
19483;DHT22;9882;51.166;6.992;2023-05-09T08:33:49;18.10;99.90
19483;DHT22;9882;51.166;6.992;2023-05-09T08:36:17;18.00;99.90
19483;DHT22;9882;51.166;6.992;2023-05-09T08:38:48;18.10;99.90
19483;DHT22;9882;51.166;6.992;2023-05-09T08:41:17;18.20;99.90
19483;DHT22;9882;51.166;6.992;2023-05-09T08:43:48;18.20;99.90
19483;DHT22;9882;51.166;6.992;2023-05-09T08:46:21;18.20;99.90
19483;DHT22;9882;51.166;6.992;2023-05-09T08:48:59;18.20;99.90
19483;DHT22;9882;51.166;6.992;2023-05-09T08:51:29;18.20;99.90
19483;DHT22;9882;51.166;6.992;2023-05-09T08:54:00;18.40;99.90
19483;DHT22;9882;51.166;6.992;2023-05-09T08:56:31;18.40;99.90
19483;DHT22;9882;51.166;6.992;2023-05-09T08:59:00;18.40;99.90
19483;DHT22;9882;51.166;6.992;2023-05-09T09:01:32;18.50;99.90
19483;DHT22;9882;51.166;6.992;2023-05-09T09:04:05;18.60;99.90
19483;DHT22;9882;51.166;6.992;2023-05-09T09:06:38;18.70;99.90
19483;DHT22;9882;51.166;6.992;2023-05-09T09:09:07;18.90;99.90
19483;DHT22;9882;51.166;6.992;2023-05-09T09:11:36;19.00;99.90
19483;DHT22;9882;51.166;6.992;2023-05-09T09:14:11;19.20;99.90
19483;DHT22;9882;51.166;6.992;2023-05-09T09:17:05;19.20;99.90
19483;DHT22;9882;51.166;6.992;2023-05-09T09:19:40;19.10;99.90
19483;DHT22;9882;51.166;6.992;2023-05-09T09:22:17;19.40;99.90
19483;DHT22;9882;51.166;6.992;2023-05-09T09:24:51;19.20;99.90
19483;DHT22;9882;51.166;6.992;2023-05-09T09:27:22;19.10;99.90
19483;DHT22;9882;51.166;6.992;2023-05-09T09:29:55;19.50;99.90
19483;DHT22;9882;51.166;6.992;2023-05-09T09:32:46;19.30;99.90
19483;DHT22;9882;51.166;6.992;2023-05-09T09:35:22;19.50;99.90
19483;DHT22;9882;51.166;6.992;2023-05-09T09:38:07;19.80;99.90
19483;DHT22;9882;51.166;6.992;2023-05-09T09:40:38;19.60;99.90
19483;DHT22;9882;51.166;6.992;2023-05-09T09:43:08;19.70;99.90
19483;DHT22;9882;51.166;6.992;2023-05-09T09:45:40;19.80;99.90
19483;DHT22;9882;51.166;6.992;2023-05-09T09:48:11;20.00;99.90
19483;DHT22;9882;51.166;6.992;2023-05-09T09:50:41;20.00;99.90
19483;DHT22;9882;51.166;6.992;2023-05-09T09:53:10;20.20;99.90
19483;DHT22;9882;51.166;6.992;2023-05-09T09:55:48;20.20;99.90
19483;DHT22;9882;51.166;6.992;2023-05-09T09:58:21;20.20;99.90
19483;DHT22;9882;51.166;6.992;2023-05-09T10:01:03;20.00;99.90
19483;DHT22;9882;51.166;6.992;2023-05-09T10:03:40;20.20;99.90
19483;DHT22;9882;51.166;6.992;2023-05-09T10:06:18;20.00;99.90
19483;DHT22;9882;51.166;6.992;2023-05-09T10:08:50;19.90;99.90
19483;DHT22;9882;51.166;6.992;2023-05-09T10:11:27;19.90;99.90
19483;DHT22;9882;51.166;6.992;2023-05-09T10:14:11;20.10;99.90
19483;DHT22;9882;51.166;6.992;2023-05-09T10:16:40;20.20;99.90
19483;DHT22;9882;51.166;6.992;2023-05-09T10:19:12;20.40;99.90
19483;DHT22;9882;51.166;6.992;2023-05-09T10:21:50;20.20;99.90
19483;DHT22;9882;51.166;6.992;2023-05-09T10:24:28;19.90;99.90
19483;DHT22;9882;51.166;6.992;2023-05-09T10:27:01;20.00;99.90
19483;DHT22;9882;51.166;6.992;2023-05-09T10:29:34;20.00;99.90
19483;DHT22;9882;51.166;6.992;2023-05-09T10:32:11;20.30;99.90
19483;DHT22;9882;51.166;6.992;2023-05-09T10:34:48;20.60;99.90
19483;DHT22;9882;51.166;6.992;2023-05-09T10:37:19;20.60;99.90
19483;DHT22;9882;51.166;6.992;2023-05-09T10:39:51;20.80;99.90
19483;DHT22;9882;51.166;6.992;2023-05-09T10:42:21;20.90;99.90
19483;DHT22;9882;51.166;6.992;2023-05-09T10:44:55;20.90;99.90
19483;DHT22;9882;51.166;6.992;2023-05-09T10:47:25;21.00;99.90
19483;DHT22;9882;51.166;6.992;2023-05-09T10:49:55;21.20;99.90
19483;DHT22;9882;51.166;6.992;2023-05-09T10:52:32;20.90;99.90
19483;DHT22;9882;51.166;6.992;2023-05-09T10:55:02;20.80;99.90
19483;DHT22;9882;51.166;6.992;2023-05-09T10:57:31;20.90;99.90
19483;DHT22;9882;51.166;6.992;2023-05-09T11:00:00;20.90;99.90
19483;DHT22;9882;51.166;6.992;2023-05-09T11:02:29;21.00;99.90
19483;DHT22;9882;51.166;6.992;2023-05-09T11:05:14;21.10;99.90
19483;DHT22;9882;51.166;6.992;2023-05-09T11:07:47;21.20;99.90
19483;DHT22;9882;51.166;6.992;2023-05-09T11:10:44;21.00;99.90
19483;DHT22;9882;51.166;6.992;2023-05-09T11:13:20;20.80;99.90
19483;DHT22;9882;51.166;6.992;2023-05-09T11:16:09;20.70;99.90
19483;DHT22;9882;51.166;6.992;2023-05-09T11:18:51;20.80;99.90
19483;DHT22;9882;51.166;6.992;2023-05-09T11:21:20;20.90;99.90
19483;DHT22;9882;51.166;6.992;2023-05-09T11:23:51;20.90;99.90
19483;DHT22;9882;51.166;6.992;2023-05-09T11:26:27;21.20;99.90
19483;DHT22;9882;51.166;6.992;2023-05-09T11:28:59;21.40;99.90
19483;DHT22;9882;51.166;6.992;2023-05-09T11:31:30;21.30;99.90
19483;DHT22;9882;51.166;6.992;2023-05-09T11:34:01;21.40;99.90
19483;DHT22;9882;51.166;6.992;2023-05-09T11:36:47;21.40;99.90
19483;DHT22;9882;51.166;6.992;2023-05-09T11:39:26;21.60;99.90
19483;DHT22;9882;51.166;6.992;2023-05-09T11:41:59;21.80;99.90
19483;DHT22;9882;51.166;6.992;2023-05-09T11:44:34;21.50;99.90
19483;DHT22;9882;51.166;6.992;2023-05-09T11:47:06;21.70;99.90
19483;DHT22;9882;51.166;6.992;2023-05-09T11:49:42;21.80;99.90
19483;DHT22;9882;51.166;6.992;2023-05-09T11:52:21;21.90;99.90
19483;DHT22;9882;51.166;6.992;2023-05-09T11:55:20;22.00;99.90
19483;DHT22;9882;51.166;6.992;2023-05-09T11:57:54;22.10;99.90
19483;DHT22;9882;51.166;6.992;2023-05-09T12:00:55;22.30;99.90
19483;DHT22;9882;51.166;6.992;2023-05-09T12:03:51;22.00;99.90
19483;DHT22;9882;51.166;6.992;2023-05-09T12:06:56;21.70;99.90
19483;DHT22;9882;51.166;6.992;2023-05-09T12:26:46;21.90;99.90
19483;DHT22;9882;51.166;6.992;2023-05-09T12:29:35;21.60;99.90
19483;DHT22;9882;51.166;6.992;2023-05-09T12:32:27;21.60;99.90
19483;DHT22;9882;51.166;6.992;2023-05-09T12:42:50;21.90;99.90
19483;DHT22;9882;51.166;6.992;2023-05-09T12:50:33;22.20;99.90
19483;DHT22;9882;51.166;6.992;2023-05-09T12:53:34;22.40;99.90
19483;DHT22;9882;51.166;6.992;2023-05-09T12:57:19;22.20;99.90
19483;DHT22;9882;51.166;6.992;2023-05-09T13:00:07;22.10;99.90
19483;DHT22;9882;51.166;6.992;2023-05-09T13:07:06;22.00;99.90
19483;DHT22;9882;51.166;6.992;2023-05-09T13:10:09;22.00;99.90
19483;DHT22;9882;51.166;6.992;2023-05-09T13:16:26;22.10;99.90
19483;DHT22;9882;51.166;6.992;2023-05-09T13:22:40;22.40;99.90
19483;DHT22;9882;51.166;6.992;2023-05-09T13:30:24;22.20;99.90
19483;DHT22;9882;51.166;6.992;2023-05-09T13:33:34;22.30;99.90
19483;DHT22;9882;51.166;6.992;2023-05-09T13:36:13;22.50;99.90
19483;DHT22;9882;51.166;6.992;2023-05-09T13:38:45;22.50;99.90
19483;DHT22;9882;51.166;6.992;2023-05-09T13:41:14;22.30;99.90
19483;DHT22;9882;51.166;6.992;2023-05-09T13:43:46;22.20;99.90
19483;DHT22;9882;51.166;6.992;2023-05-09T13:46:15;22.20;99.90
19483;DHT22;9882;51.166;6.992;2023-05-09T13:48:45;22.10;99.90
19483;DHT22;9882;51.166;6.992;2023-05-09T13:51:14;22.10;99.90
19483;DHT22;9882;51.166;6.992;2023-05-09T13:53:43;22.10;99.90
19483;DHT22;9882;51.166;6.992;2023-05-09T13:56:11;22.30;99.90
19483;DHT22;9882;51.166;6.992;2023-05-09T13:58:46;21.90;99.90
19483;DHT22;9882;51.166;6.992;2023-05-09T14:01:15;22.10;99.90
19483;DHT22;9882;51.166;6.992;2023-05-09T14:03:45;21.80;99.90
19483;DHT22;9882;51.166;6.992;2023-05-09T14:06:15;21.40;99.90
19483;DHT22;9882;51.166;6.992;2023-05-09T14:08:44;21.40;99.90
19483;DHT22;9882;51.166;6.992;2023-05-09T14:11:14;20.70;99.90
19483;DHT22;9882;51.166;6.992;2023-05-09T14:13:42;20.00;99.90
19483;DHT22;9882;51.166;6.992;2023-05-09T14:16:11;19.90;99.90
19483;DHT22;9882;51.166;6.992;2023-05-09T14:18:39;19.90;99.90
19483;DHT22;9882;51.166;6.992;2023-05-09T14:21:09;20.00;99.90
19483;DHT22;9882;51.166;6.992;2023-05-09T14:23:42;19.40;99.90
19483;DHT22;9882;51.166;6.992;2023-05-09T14:26:11;19.80;99.90
19483;DHT22;9882;51.166;6.992;2023-05-09T14:28:40;18.90;99.90
19483;DHT22;9882;51.166;6.992;2023-05-09T14:31:10;19.00;99.90
19483;DHT22;9882;51.166;6.992;2023-05-09T14:33:40;18.70;99.90
19483;DHT22;9882;51.166;6.992;2023-05-09T14:36:11;18.60;99.90
19483;DHT22;9882;51.166;6.992;2023-05-09T14:38:44;18.40;99.90
19483;DHT22;9882;51.166;6.992;2023-05-09T14:41:15;18.10;99.90
19483;DHT22;9882;51.166;6.992;2023-05-09T14:43:45;17.90;99.90
19483;DHT22;9882;51.166;6.992;2023-05-09T14:46:13;17.90;99.90
19483;DHT22;9882;51.166;6.992;2023-05-09T14:48:42;18.20;99.90
19483;DHT22;9882;51.166;6.992;2023-05-09T14:51:13;18.00;99.90
19483;DHT22;9882;51.166;6.992;2023-05-09T14:53:44;18.10;99.90
19483;DHT22;9882;51.166;6.992;2023-05-09T14:56:13;18.10;99.90
19483;DHT22;9882;51.166;6.992;2023-05-09T14:58:42;17.80;99.90
19483;DHT22;9882;51.166;6.992;2023-05-09T15:01:10;17.90;99.90
19483;DHT22;9882;51.166;6.992;2023-05-09T15:03:41;18.00;99.90
19483;DHT22;9882;51.166;6.992;2023-05-09T15:06:10;18.00;99.90
19483;DHT22;9882;51.166;6.992;2023-05-09T15:08:41;18.20;99.90
19483;DHT22;9882;51.166;6.992;2023-05-09T15:11:09;17.40;99.90
19483;DHT22;9882;51.166;6.992;2023-05-09T15:13:38;18.20;99.90
19483;DHT22;9882;51.166;6.992;2023-05-09T15:16:06;18.30;99.90
19483;DHT22;9882;51.166;6.992;2023-05-09T15:18:35;18.40;99.90
19483;DHT22;9882;51.166;6.992;2023-05-09T15:21:06;18.40;99.90
19483;DHT22;9882;51.166;6.992;2023-05-09T15:23:34;18.20;99.90
19483;DHT22;9882;51.166;6.992;2023-05-09T15:26:04;18.40;99.90
19483;DHT22;9882;51.166;6.992;2023-05-09T15:28:36;17.90;99.90
19483;DHT22;9882;51.166;6.992;2023-05-09T15:31:05;18.00;99.90
19483;DHT22;9882;51.166;6.992;2023-05-09T15:33:37;18.10;99.90
19483;DHT22;9882;51.166;6.992;2023-05-09T15:36:08;18.30;99.90
19483;DHT22;9882;51.166;6.992;2023-05-09T15:38:37;19.30;99.90
19483;DHT22;9882;51.166;6.992;2023-05-09T15:41:09;19.80;99.90
19483;DHT22;9882;51.166;6.992;2023-05-09T15:43:39;19.40;99.90
19483;DHT22;9882;51.166;6.992;2023-05-09T15:46:19;19.40;99.90
19483;DHT22;9882;51.166;6.992;2023-05-09T15:48:56;19.40;99.90
19483;DHT22;9882;51.166;6.992;2023-05-09T15:51:33;18.90;99.90
19483;DHT22;9882;51.166;6.992;2023-05-09T15:54:02;19.10;99.90
19483;DHT22;9882;51.166;6.992;2023-05-09T15:56:36;18.80;99.90
19483;DHT22;9882;51.166;6.992;2023-05-09T15:59:11;18.70;99.90
19483;DHT22;9882;51.166;6.992;2023-05-09T16:01:46;18.60;99.90
19483;DHT22;9882;51.166;6.992;2023-05-09T16:04:15;18.90;99.90
19483;DHT22;9882;51.166;6.992;2023-05-09T16:06:50;19.30;99.90
19483;DHT22;9882;51.166;6.992;2023-05-09T16:09:28;19.30;99.90
19483;DHT22;9882;51.166;6.992;2023-05-09T16:12:03;19.30;99.90
19483;DHT22;9882;51.166;6.992;2023-05-09T16:14:32;19.50;99.90
19483;DHT22;9882;51.166;6.992;2023-05-09T16:17:03;19.90;99.90
19483;DHT22;9882;51.166;6.992;2023-05-09T16:19:34;20.00;99.90
19483;DHT22;9882;51.166;6.992;2023-05-09T16:22:03;20.20;99.90
19483;DHT22;9882;51.166;6.992;2023-05-09T16:24:31;20.30;99.90
19483;DHT22;9882;51.166;6.992;2023-05-09T16:27:05;20.20;99.90
19483;DHT22;9882;51.166;6.992;2023-05-09T16:29:37;20.20;99.90
19483;DHT22;9882;51.166;6.992;2023-05-09T16:32:06;20.00;99.90
19483;DHT22;9882;51.166;6.992;2023-05-09T16:34:40;20.20;99.90
19483;DHT22;9882;51.166;6.992;2023-05-09T16:37:18;20.40;99.90
19483;DHT22;9882;51.166;6.992;2023-05-09T16:39:47;20.40;99.90
19483;DHT22;9882;51.166;6.992;2023-05-09T16:42:30;20.50;99.90
19483;DHT22;9882;51.166;6.992;2023-05-09T16:44:59;20.70;99.90
19483;DHT22;9882;51.166;6.992;2023-05-09T16:47:38;20.60;99.90
19483;DHT22;9882;51.166;6.992;2023-05-09T16:50:13;20.60;99.90
19483;DHT22;9882;51.166;6.992;2023-05-09T16:52:49;20.60;99.90
19483;DHT22;9882;51.166;6.992;2023-05-09T16:55:18;20.60;99.90
19483;DHT22;9882;51.166;6.992;2023-05-09T16:58:11;20.40;99.90
19483;DHT22;9882;51.166;6.992;2023-05-09T17:02:01;19.50;99.90
19483;DHT22;9882;51.166;6.992;2023-05-09T17:05:20;20.00;99.90
19483;DHT22;9882;51.166;6.992;2023-05-09T17:08:17;20.10;99.90
19483;DHT22;9882;51.166;6.992;2023-05-09T17:18:43;20.10;99.90